Time;durP1;ratioP1;P1;durP2;ratioP2;P2;SDS_P1;SDS_P2;PMS_P1;PMS_P2;Temp;Humidity;BMP_temperature;BMP_pressure;BME280_temperature;BME280_humidity;BME280_pressure;Samples;Min_cycle;Max_cycle;Signal;HPM_P1;HPM_P2
2021/10/04 00:01:38;;;;;;;0.67;0.53;;;;;;;15.40;79.35;100401.66;4858869;29;20893;-74
2021/10/04 00:04:03;;;;;;;1.90;1.30;;;;;;;15.32;79.50;100402.22;4858874;29;20550;-73
2021/10/04 00:06:29;;;;;;;1.47;0.53;;;;;;;15.33;79.63;100401.13;4857714;29;20413;-74
2021/10/04 00:08:55;;;;;;;1.30;0.50;;;;;;;15.30;79.25;100409.06;4858004;29;20569;-73
2021/10/04 00:11:20;;;;;;;0.63;0.50;;;;;;;15.28;79.38;100405.81;4858777;29;20848;-73
2021/10/04 00:13:46;;;;;;;1.80;0.60;;;;;;;15.22;79.51;100415.91;4857125;29;20432;-74
2021/10/04 00:16:11;;;;;;;2.17;0.60;;;;;;;15.24;79.48;100408.25;4857134;29;20433;-74
2021/10/04 00:18:36;;;;;;;0.50;0.30;;;;;;;15.24;79.39;100404.72;4858232;29;20449;-74
2021/10/04 00:21:02;;;;;;;1.20;0.60;;;;;;;15.25;79.49;100412.59;4858189;29;20501;-74
2021/10/04 00:23:27;;;;;;;2.30;1.00;;;;;;;15.24;79.43;100407.44;4841986;29;20411;-74
2021/10/04 00:25:52;;;;;;;1.50;0.60;;;;;;;15.27;79.64;100409.63;4856330;29;20513;-74
2021/10/04 00:28:18;;;;;;;0.50;0.50;;;;;;;15.31;79.54;100413.44;4844201;29;20434;-74
2021/10/04 00:30:43;;;;;;;1.20;1.10;;;;;;;15.26;79.63;100417.00;4858374;29;20546;-74
2021/10/04 00:33:09;;;;;;;1.25;0.52;;;;;;;15.23;79.76;100417.53;4841362;29;20586;-74
2021/10/04 00:35:34;;;;;;;2.10;0.70;;;;;;;15.24;79.80;100421.91;4857318;29;20425;-74
2021/10/04 00:38:00;;;;;;;1.67;1.50;;;;;;;15.27;79.90;100409.63;4861459;29;20426;-74
2021/10/04 00:40:32;;;;;;;1.27;0.60;;;;;;;15.27;79.77;100407.72;4861721;29;20514;-74
2021/10/04 00:42:58;;;;;;;2.30;1.40;;;;;;;15.28;79.99;100408.53;4844811;29;20453;-74
2021/10/04 00:45:24;;;;;;;0.60;0.60;;;;;;;15.29;80.04;100412.88;4859919;29;20438;-74
2021/10/04 00:47:49;;;;;;;0.60;0.50;;;;;;;15.24;79.51;100393.78;4844802;29;20438;-74
2021/10/04 00:50:17;;;;;;;4.20;1.10;;;;;;;15.21;80.14;100397.06;4861341;29;20492;-73
2021/10/04 00:52:43;;;;;;;0.63;0.63;;;;;;;15.22;80.16;100396.78;4860194;29;20407;-73
2021/10/04 00:55:09;;;;;;;0.60;0.60;;;;;;;15.21;80.20;100389.72;4844218;29;20418;-74
2021/10/04 00:57:36;;;;;;;1.05;0.57;;;;;;;15.15;80.33;100379.09;4859685;29;20584;-74
2021/10/04 01:00:08;;;;;;;2.15;0.65;;;;;;;15.16;80.07;100389.72;4861167;29;20517;-73
2021/10/04 01:02:34;;;;;;;1.88;0.70;;;;;;;15.19;79.83;100389.16;4860864;29;20414;-73
2021/10/04 01:04:59;;;;;;;0.90;0.60;;;;;;;15.19;79.99;100407.44;4860404;29;20774;-74
2021/10/04 01:07:25;;;;;;;0.60;0.60;;;;;;;15.19;79.85;100405.53;4857789;29;20474;-74
2021/10/04 01:09:50;;;;;;;1.30;0.68;;;;;;;15.21;79.57;100410.72;4860886;29;20418;-74
2021/10/04 01:12:16;;;;;;;2.37;0.70;;;;;;;15.21;79.61;100402.53;4860979;29;20901;-74
2021/10/04 01:14:41;;;;;;;2.60;1.40;;;;;;;15.20;79.72;100403.63;4861232;29;20467;-73
2021/10/04 01:17:07;;;;;;;3.20;0.90;;;;;;;15.22;79.72;100406.88;4858246;29;20782;-74
2021/10/04 01:19:32;;;;;;;1.70;0.87;;;;;;;15.22;80.09;100418.63;4859942;29;20543;-74
2021/10/04 01:21:57;;;;;;;2.80;1.13;;;;;;;15.20;80.40;100417.28;4860831;29;20890;-74
2021/10/04 01:24:22;;;;;;;2.15;1.30;;;;;;;15.18;79.89;100414.00;4860387;29;20410;-73
2021/10/04 01:26:48;;;;;;;1.97;1.00;;;;;;;15.19;79.83;100407.44;4858347;29;21255;-74
2021/10/04 01:29:13;;;;;;;1.37;1.03;;;;;;;15.20;79.68;100400.88;4860712;29;20410;-74
2021/10/04 01:31:38;;;;;;;1.58;0.90;;;;;;;15.15;79.91;100401.72;4860866;29;20410;-73
2021/10/04 01:34:05;;;;;;;2.50;0.83;;;;;;;15.15;79.17;100398.97;4843403;29;20477;-74
2021/10/04 01:36:31;;;;;;;1.35;1.25;;;;;;;15.15;79.36;100400.91;4859404;29;20426;-73
2021/10/04 01:38:57;;;;;;;2.83;0.68;;;;;;;15.11;79.28;100414.28;4860451;29;20418;-73
2021/10/04 01:41:23;;;;;;;0.95;0.60;;;;;;;15.08;79.08;100417.59;4860601;29;20956;-74
2021/10/04 01:43:49;;;;;;;2.20;0.85;;;;;;;15.05;78.91;100424.38;4858081;29;20526;-74
2021/10/04 01:46:15;;;;;;;2.87;0.53;;;;;;;15.02;78.89;100421.38;4860595;29;20410;-73
2021/10/04 01:48:40;;;;;;;1.73;0.43;;;;;;;15.01;78.68;100420.59;4842769;29;20429;-74
2021/10/04 01:51:06;;;;;;;1.13;0.63;;;;;;;14.98;78.21;100434.75;4860511;29;20906;-74
2021/10/04 01:53:32;;;;;;;2.10;0.77;;;;;;;14.97;78.93;100433.16;4841685;29;20422;-73
2021/10/04 01:55:57;;;;;;;0.90;0.70;;;;;;;14.97;79.51;100440.50;4859764;29;20414;-73
2021/10/04 01:58:23;;;;;;;0.70;0.37;;;;;;;14.98;79.63;100440.22;4860384;29;20410;-73
2021/10/04 02:00:49;;;;;;;2.47;0.50;;;;;;;14.98;79.60;100442.16;4843604;29;20482;-74
2021/10/04 02:03:15;;;;;;;2.10;0.60;;;;;;;14.91;79.51;100434.25;4860253;29;20417;-73
2021/10/04 02:05:40;;;;;;;3.75;0.77;;;;;;;14.94;79.13;100436.41;4858793;29;20438;-73
2021/10/04 02:08:06;;;;;;;0.80;0.43;;;;;;;14.88;79.82;100437.53;4860139;29;20769;-74
2021/10/04 02:10:37;;;;;;;1.10;1.00;;;;;;;14.87;79.66;100430.41;4860234;29;20907;-74
2021/10/04 02:13:06;;;;;;;1.15;0.60;;;;;;;14.88;80.18;100436.69;4859571;29;20866;-74
2021/10/04 02:15:32;;;;;;;0.55;0.55;;;;;;;14.83;80.06;100423.03;4858528;29;20468;-74
2021/10/04 02:17:58;;;;;;;4.00;0.90;;;;;;;14.81;80.07;100430.69;4859722;29;20515;-73
2021/10/04 02:20:28;;;;;;;0.60;0.60;;;;;;;14.84;79.97;100424.69;4859895;29;20434;-74
2021/10/04 02:22:55;;;;;;;0.63;0.63;;;;;;;14.85;79.54;100424.41;4859817;29;20497;-74
2021/10/04 02:25:21;;;;;;;1.80;0.63;;;;;;;14.84;79.07;100416.50;4857093;29;20422;-74
2021/10/04 02:27:47;;;;;;;2.65;0.93;;;;;;;14.83;79.16;100401.22;4858423;29;20465;-74
2021/10/04 02:30:19;;;;;;;2.57;0.67;;;;;;;14.81;79.13;100406.13;4859882;29;20829;-73
2021/10/04 02:32:44;;;;;;;1.80;0.57;;;;;;;14.77;79.80;100400.41;4859730;29;20897;-74
2021/10/04 02:35:10;;;;;;;1.63;0.50;;;;;;;14.74;80.00;100402.88;4858705;29;20433;-74
2021/10/04 02:37:36;;;;;;;1.25;0.45;;;;;;;14.73;79.99;100399.31;4859535;29;20485;-74
2021/10/04 02:40:04;;;;;;;0.45;0.45;;;;;;;14.75;80.11;100410.75;4859584;29;20529;-73
2021/10/04 02:42:29;;;;;;;1.00;0.40;;;;;;;14.74;80.19;100417.31;4859386;29;20899;-74
2021/10/04 02:44:55;;;;;;;1.00;0.60;;;;;;;14.77;79.89;100405.03;4857832;29;20418;-73
2021/10/04 02:47:20;;;;;;;2.00;1.00;;;;;;;14.77;80.22;100407.78;4859751;29;20562;-74
2021/10/04 02:49:45;;;;;;;0.87;0.40;;;;;;;14.77;79.86;100407.78;4859285;29;20410;-74
2021/10/04 02:52:12;;;;;;;1.40;0.43;;;;;;;14.78;79.26;100414.88;4859478;29;20450;-73
2021/10/04 02:54:38;;;;;;;1.60;0.60;;;;;;;14.78;79.80;100418.44;4856989;29;20776;-74
2021/10/04 02:57:03;;;;;;;4.00;3.70;;;;;;;14.75;79.99;100423.59;4858423;29;20422;-73
2021/10/04 02:59:29;;;;;;;5.13;4.13;;;;;;;14.70;80.10;100424.41;4859073;29;20774;-74
2021/10/04 03:01:54;;;;;;;4.70;3.00;;;;;;;14.65;80.37;100427.16;4859127;29;20402;-73
2021/10/04 03:04:23;;;;;;;2.80;2.70;;;;;;;14.63;80.41;100436.69;4841822;29;20414;-74
2021/10/04 03:06:48;;;;;;;1.20;0.60;;;;;;;14.63;80.33;100444.84;4858916;29;20418;-74
2021/10/04 03:09:14;;;;;;;1.10;0.80;;;;;;;14.61;80.24;100434.25;4858304;29;20512;-73
2021/10/04 03:11:40;;;;;;;1.97;0.50;;;;;;;14.63;80.10;100442.13;4859285;29;20410;-73
2021/10/04 03:14:05;;;;;;;0.70;0.70;;;;;;;14.65;79.53;100429.88;4857874;29;20931;-74
2021/10/04 03:16:30;;;;;;;1.80;0.57;;;;;;;14.64;79.83;100430.13;4842880;29;21712;-73
2021/10/04 03:18:56;;;;;;;0.70;0.70;;;;;;;14.63;80.13;100432.03;4858972;29;20422;-74
2021/10/04 03:21:21;;;;;;;4.50;0.60;;;;;;;14.60;80.10;100431.78;4858964;29;20482;-74
2021/10/04 03:23:47;;;;;;;0.32;0.32;;;;;;;14.59;80.35;100433.66;4857194;29;20423;-73
2021/10/04 03:26:12;;;;;;;1.27;0.93;;;;;;;14.55;80.24;100433.41;4857298;29;20509;-74
2021/10/04 03:28:37;;;;;;;3.95;0.90;;;;;;;14.59;80.09;100436.41;4858897;29;20414;-74
2021/10/04 03:31:03;;;;;;;1.40;0.80;;;;;;;14.59;80.22;100428.22;4859083;29;20921;-74
2021/10/04 03:33:28;;;;;;;0.70;0.70;;;;;;;14.65;79.83;100442.69;4859034;29;21055;-74
2021/10/04 03:35:53;;;;;;;0.63;0.63;;;;;;;14.61;80.06;100438.88;4857735;29;20768;-74
2021/10/04 03:38:19;;;;;;;0.70;0.70;;;;;;;14.51;80.32;100428.78;4858877;29;20414;-74
2021/10/04 03:40:44;;;;;;;2.90;0.77;;;;;;;14.51;80.38;100436.94;4858788;29;20469;-74
2021/10/04 03:43:09;;;;;;;2.17;1.00;;;;;;;14.46;80.42;100421.41;4858843;29;20430;-73
2021/10/04 03:45:35;;;;;;;1.98;0.85;;;;;;;14.46;80.53;100443.22;4857860;29;20414;-73
2021/10/04 03:48:00;;;;;;;2.17;0.83;;;;;;;14.42;80.78;100444.84;4857207;29;20418;-74
2021/10/04 03:50:25;;;;;;;2.80;0.70;;;;;;;14.42;81.00;100439.38;4857814;29;20539;-73
2021/10/04 03:52:51;;;;;;;1.80;0.90;;;;;;;14.45;80.73;100436.13;4856941;29;20422;-74
2021/10/04 03:55:16;;;;;;;1.13;0.70;;;;;;;14.45;81.00;100451.69;4840186;29;20422;-74
2021/10/04 03:57:42;;;;;;;1.40;0.75;;;;;;;14.45;80.77;100449.78;4855247;29;20909;-74
2021/10/04 04:00:11;;;;;;;1.98;0.77;;;;;;;14.42;80.96;100458.47;4857953;29;20469;-74
2021/10/04 04:02:36;;;;;;;1.67;0.73;;;;;;;14.40;81.11;100455.19;4858815;29;20917;-74
2021/10/04 04:05:02;;;;;;;2.40;0.80;;;;;;;14.40;80.95;100455.19;4858399;29;20414;-74
2021/10/04 04:07:27;;;;;;;2.27;1.10;;;;;;;14.38;81.29;100462.03;4858719;29;20421;-74
2021/10/04 04:09:53;;;;;;;1.83;1.10;;;;;;;14.40;81.37;100468.00;4854611;29;20442;-74
2021/10/04 04:12:18;;;;;;;3.67;1.23;;;;;;;14.40;81.47;100457.94;4846319;29;20421;-74
2021/10/04 04:14:43;;;;;;;1.47;0.80;;;;;;;14.41;81.63;100467.75;4859560;29;20406;-74
2021/10/04 04:17:08;;;;;;;2.40;1.30;;;;;;;14.38;81.44;100472.94;4862043;29;20418;-74
2021/10/04 04:19:34;;;;;;;1.47;1.17;;;;;;;14.39;81.22;100480.81;4859290;29;20812;-73
2021/10/04 04:21:59;;;;;;;2.60;1.30;;;;;;;14.37;81.38;100480.28;4862291;29;20425;-74
2021/10/04 04:24:24;;;;;;;1.30;0.90;;;;;;;14.37;81.55;100485.72;4861555;29;20479;-73
2021/10/04 04:26:53;;;;;;;2.50;1.70;;;;;;;14.37;81.53;100485.72;4858522;29;20414;-74
2021/10/04 04:29:18;;;;;;;3.22;3.03;;;;;;;14.39;81.39;100490.94;4841831;29;20531;-74
2021/10/04 04:31:43;;;;;;;3.10;2.10;;;;;;;14.43;81.48;100502.91;4861896;29;20501;-73
2021/10/04 04:34:08;;;;;;;2.47;2.10;;;;;;;14.40;81.79;100506.19;4861739;29;20479;-73
2021/10/04 04:36:34;;;;;;;3.80;1.40;;;;;;;14.38;81.43;100511.91;4861723;29;20501;-74
2021/10/04 04:38:59;;;;;;;4.30;2.00;;;;;;;14.34;81.53;100515.44;4860267;29;20490;-73
2021/10/04 04:41:25;;;;;;;0.70;0.70;;;;;;;14.33;81.75;100519.22;4860784;29;20419;-73
2021/10/04 04:43:50;;;;;;;2.13;0.73;;;;;;;14.30;81.53;100520.56;4860955;29;20454;-73
2021/10/04 04:46:16;;;;;;;0.70;0.60;;;;;;;14.37;81.48;100517.63;4856490;29;20523;-73
2021/10/04 04:48:41;;;;;;;2.37;0.60;;;;;;;14.39;81.25;100518.19;4859910;29;20414;-73
2021/10/04 04:51:06;;;;;;;1.20;0.60;;;;;;;14.36;81.44;100519.53;4857309;29;20766;-74
2021/10/04 04:53:32;;;;;;;1.80;0.53;;;;;;;14.37;81.59;100523.06;4855569;29;20450;-73
2021/10/04 04:55:57;;;;;;;1.27;0.40;;;;;;;14.31;81.08;100522.22;4861462;29;20503;-73
2021/10/04 04:58:22;;;;;;;1.10;0.80;;;;;;;14.27;81.40;100537.47;4860902;29;20431;-73
2021/10/04 05:00:48;;;;;;;0.83;0.50;;;;;;;14.25;81.30;100542.38;4857294;29;20438;-73
2021/10/04 05:03:14;;;;;;;1.40;0.50;;;;;;;14.23;81.44;100533.63;4846390;29;20418;-73
2021/10/04 05:05:39;;;;;;;0.55;0.50;;;;;;;14.18;81.30;100544.53;4861169;29;20419;-73
2021/10/04 05:08:05;;;;;;;0.50;0.50;;;;;;;14.15;81.59;100552.41;4859579;29;20474;-73
2021/10/04 05:10:31;;;;;;;0.85;0.55;;;;;;;14.13;81.49;100555.38;4846734;29;20422;-73
2021/10/04 05:12:57;;;;;;;2.30;0.50;;;;;;;14.12;81.43;100555.66;4859817;29;20422;-73
2021/10/04 05:15:22;;;;;;;1.48;1.00;;;;;;;14.08;81.72;100555.38;4858313;29;20994;-74
2021/10/04 05:17:48;;;;;;;1.25;0.40;;;;;;;14.10;81.86;100550.47;4858279;29;20535;-73
2021/10/04 05:20:13;;;;;;;1.63;0.67;;;;;;;14.12;81.68;100550.22;4858650;29;20582;-74
2021/10/04 05:22:38;;;;;;;1.70;0.80;;;;;;;14.12;81.81;100559.22;4860667;29;20415;-74
2021/10/04 05:25:06;;;;;;;0.90;0.73;;;;;;;14.15;81.77;100560.59;4859335;29;20425;-74
2021/10/04 05:27:31;;;;;;;1.10;0.63;;;;;;;14.14;82.16;100570.66;4860058;29;20916;-73
2021/10/04 05:29:57;;;;;;;1.83;0.73;;;;;;;14.13;81.87;100565.50;4858015;29;20450;-73
2021/10/04 05:32:22;;;;;;;1.25;0.63;;;;;;;14.10;81.90;100575.00;4857103;29;20521;-73
2021/10/04 05:34:48;;;;;;;1.13;0.50;;;;;;;14.07;81.89;100583.72;4840529;29;20431;-73
2021/10/04 05:37:13;;;;;;;0.90;0.70;;;;;;;14.02;81.80;100584.50;4851495;29;20430;-74
2021/10/04 05:39:38;;;;;;;0.90;0.60;;;;;;;14.07;81.49;100585.59;4855317;29;20597;-73
2021/10/04 05:42:04;;;;;;;0.50;0.50;;;;;;;14.08;81.76;100581.81;4859284;29;20425;-74
2021/10/04 05:44:29;;;;;;;1.80;0.50;;;;;;;14.06;81.79;100579.34;4836741;29;20904;-73
2021/10/04 05:46:54;;;;;;;1.40;0.40;;;;;;;14.03;81.76;100582.59;4854178;29;20424;-75
2021/10/04 05:49:19;;;;;;;2.03;0.50;;;;;;;13.96;81.69;100588.28;4858890;29;20434;-73
2021/10/04 05:51:45;;;;;;;3.87;1.40;;;;;;;13.93;81.81;100588.81;4860668;29;20407;-73
2021/10/04 05:54:10;;;;;;;3.15;0.60;;;;;;;13.95;82.02;100589.38;4860526;29;20914;-73
2021/10/04 05:56:35;;;;;;;0.77;0.77;;;;;;;13.98;82.11;100582.56;4859453;29;20925;-74
2021/10/04 05:59:01;;;;;;;0.60;0.60;;;;;;;14.04;81.49;100581.50;4860350;29;20466;-74
2021/10/04 06:01:26;;;;;;;7.23;6.13;;;;;;;14.08;81.83;100587.25;4860639;29;20818;-73
2021/10/04 06:03:51;;;;;;;10.57;8.73;;;;;;;14.11;81.77;100593.00;4860384;29;20502;-74
2021/10/04 06:06:16;;;;;;;18.87;11.77;;;;;;;14.08;81.61;100590.81;4858923;29;20483;-74
2021/10/04 06:08:42;;;;;;;17.73;11.83;;;;;;;14.07;81.98;100585.59;4843634;29;20889;-73
2021/10/04 06:11:07;;;;;;;3.87;3.57;;;;;;;14.09;81.97;100595.19;4863908;29;21012;-73
2021/10/04 06:13:32;;;;;;;1.43;1.33;;;;;;;14.12;82.00;100589.19;4858162;29;20523;-73
2021/10/04 06:15:58;;;;;;;0.97;0.97;;;;;;;14.13;81.42;100595.47;4859130;29;20430;-73
2021/10/04 06:18:23;;;;;;;2.83;0.73;;;;;;;14.10;81.74;100590.53;4858017;29;20485;-74
2021/10/04 06:20:49;;;;;;;1.37;1.27;;;;;;;14.09;81.56;100603.34;4860053;29;20742;-73
2021/10/04 06:23:15;;;;;;;1.40;0.87;;;;;;;14.13;81.44;100609.09;4857159;29;20466;-73
2021/10/04 06:25:40;;;;;;;0.57;0.57;;;;;;;14.10;81.75;100626.78;4859142;29;20528;-73
2021/10/04 06:28:05;;;;;;;1.00;0.55;;;;;;;14.12;81.12;100640.97;4858087;29;20425;-73
2021/10/04 06:30:31;;;;;;;0.53;0.53;;;;;;;14.17;80.98;100641.00;4858646;29;20414;-73
2021/10/04 06:32:56;;;;;;;0.83;0.83;;;;;;;14.14;80.74;100637.97;4855257;29;20823;-73
2021/10/04 06:35:21;;;;;;;1.23;0.50;;;;;;;14.11;81.12;100652.13;4859192;29;20423;-73
2021/10/04 06:37:47;;;;;;;1.60;0.40;;;;;;;14.08;81.50;100647.22;4859978;29;20732;-73
2021/10/04 06:40:13;;;;;;;1.23;0.57;;;;;;;14.08;81.57;100655.38;4859724;29;20422;-73
2021/10/04 06:42:39;;;;;;;0.90;0.57;;;;;;;14.10;81.67;100658.66;4856258;29;20426;-74
2021/10/04 06:45:05;;;;;;;3.20;0.63;;;;;;;14.11;81.69;100665.75;4859684;29;20493;-73
2021/10/04 06:47:31;;;;;;;1.30;0.60;;;;;;;14.13;81.67;100663.59;4859461;29;20414;-73
2021/10/04 06:49:56;;;;;;;0.40;0.40;;;;;;;14.15;81.39;100664.16;4859961;29;20403;-73
2021/10/04 06:52:21;;;;;;;1.57;0.57;;;;;;;14.18;81.23;100663.63;4857216;29;20751;-73
2021/10/04 06:54:47;;;;;;;1.20;0.60;;;;;;;14.14;81.30;100662.50;4858737;29;20426;-73
2021/10/04 06:57:12;;;;;;;2.10;0.50;;;;;;;14.16;81.20;100676.72;4859719;29;20492;-73
2021/10/04 06:59:38;;;;;;;0.60;0.60;;;;;;;14.15;81.57;100683.22;4859615;29;20426;-73
2021/10/04 07:02:03;;;;;;;0.60;0.60;;;;;;;14.15;82.13;100694.97;4858134;29;20406;-73
2021/10/04 07:04:29;;;;;;;1.10;0.80;;;;;;;14.17;81.82;100698.22;4854311;29;20913;-74
2021/10/04 07:06:55;;;;;;;1.10;0.50;;;;;;;14.16;81.70;100702.03;4859445;29;20874;-73
2021/10/04 07:09:20;;;;;;;1.15;0.80;;;;;;;14.17;81.99;100705.59;4859404;29;20406;-73
2021/10/04 07:11:46;;;;;;;0.60;0.60;;;;;;;14.18;82.04;100712.69;4859482;29;20414;-73
2021/10/04 07:14:11;;;;;;;0.90;0.90;;;;;;;14.17;81.88;100711.03;4855634;29;21077;-73
2021/10/04 07:16:36;;;;;;;1.00;0.60;;;;;;;14.14;82.23;100712.38;4855054;29;20429;-73
2021/10/04 07:19:03;;;;;;;1.17;0.70;;;;;;;14.08;82.20;100715.34;4856212;29;20430;-73
2021/10/04 07:21:29;;;;;;;0.70;0.50;;;;;;;14.08;82.61;100716.16;4858384;29;20414;-73
2021/10/04 07:23:54;;;;;;;0.82;0.70;;;;;;;14.15;82.27;100711.31;4858347;29;20762;-74
2021/10/04 07:26:20;;;;;;;1.13;0.88;;;;;;;14.22;82.35;100717.34;4853649;29;20424;-73
2021/10/04 07:28:45;;;;;;;2.00;0.60;;;;;;;14.25;81.29;100716.84;4858894;29;20406;-73
2021/10/04 07:31:11;;;;;;;1.27;0.65;;;;;;;14.25;81.73;100711.38;4858905;29;20870;-73
2021/10/04 07:33:36;;;;;;;1.17;0.70;;;;;;;14.25;81.60;100721.47;4858383;29;20395;-73
2021/10/04 07:36:06;;;;;;;0.60;0.55;;;;;;;14.24;81.94;100722.53;4856991;29;20422;-73
2021/10/04 07:38:31;;;;;;;1.30;0.88;;;;;;;14.28;81.71;100719.03;4841974;29;20442;-73
2021/10/04 07:40:58;;;;;;;0.63;0.63;;;;;;;14.33;81.57;100723.69;4857617;29;20469;-73
2021/10/04 07:43:23;;;;;;;1.05;1.05;;;;;;;14.37;81.50;100722.94;4857515;29;20777;-73
2021/10/04 07:45:49;;;;;;;1.37;0.90;;;;;;;14.37;81.30;100714.75;4859449;29;20414;-73
2021/10/04 07:48:14;;;;;;;1.13;0.90;;;;;;;14.37;81.45;100731.13;4863152;29;20410;-74
2021/10/04 07:50:39;;;;;;;2.13;1.10;;;;;;;14.35;81.71;100733.28;4863008;29;20479;-73
2021/10/04 07:53:05;;;;;;;2.43;0.80;;;;;;;14.36;81.26;100731.34;4862518;29;20418;-73
2021/10/04 07:55:30;;;;;;;1.60;1.10;;;;;;;14.37;81.04;100720.19;4860049;29;20429;-73
2021/10/04 07:57:55;;;;;;;0.90;0.90;;;;;;;14.39;80.91;100718.03;4862883;29;20973;-73
2021/10/04 08:00:21;;;;;;;2.60;1.17;;;;;;;14.42;80.93;100716.69;4862670;29;20505;-73
2021/10/04 08:02:47;;;;;;;0.60;0.60;;;;;;;14.42;80.48;100722.16;4862792;29;20883;-73
2021/10/04 08:05:13;;;;;;;0.75;0.30;;;;;;;14.40;80.07;100735.22;4862678;29;20778;-73
2021/10/04 08:07:38;;;;;;;0.90;0.68;;;;;;;14.38;80.16;100731.94;4860768;29;20449;-73
2021/10/04 08:10:06;;;;;;;0.93;0.50;;;;;;;14.40;80.49;100727.03;4844331;29;20468;-73
2021/10/04 08:12:32;;;;;;;0.63;0.50;;;;;;;14.41;81.04;100728.69;4862219;29;20410;-73
2021/10/04 08:14:57;;;;;;;2.17;0.60;;;;;;;14.41;81.58;100729.50;4861903;29;20890;-73
2021/10/04 08:17:23;;;;;;;0.98;0.70;;;;;;;14.41;81.31;100734.13;4862725;29;20421;-75
2021/10/04 08:19:50;;;;;;;1.05;0.60;;;;;;;14.45;81.39;100738.81;4860816;29;20426;-73
2021/10/04 08:22:16;;;;;;;0.98;0.60;;;;;;;14.49;81.17;100742.63;4861784;29;20422;-73
2021/10/04 08:24:42;;;;;;;1.92;0.75;;;;;;;14.48;80.33;100749.19;4862297;29;20422;-73
2021/10/04 08:27:07;;;;;;;0.52;0.50;;;;;;;14.49;80.62;100744.53;4862246;29;20398;-73
2021/10/04 08:29:32;;;;;;;2.50;0.80;;;;;;;14.49;80.58;100753.53;4858286;29;20495;-72
2021/10/04 08:31:57;;;;;;;1.10;0.60;;;;;;;14.48;80.29;100748.38;4854826;29;20475;-73
2021/10/04 08:34:23;;;;;;;1.70;0.70;;;;;;;14.49;80.58;100741.81;4856879;29;20430;-73
2021/10/04 08:36:49;;;;;;;1.43;0.70;;;;;;;14.46;80.36;100756.78;4858371;29;20422;-73
2021/10/04 08:39:15;;;;;;;1.50;0.90;;;;;;;14.45;80.86;100752.44;4861963;29;20905;-73
2021/10/04 08:41:40;;;;;;;1.47;0.73;;;;;;;14.48;81.24;100741.00;4862191;29;20465;-73
2021/10/04 08:44:13;;;;;;;2.20;1.80;;;;;;;14.47;80.49;100769.34;4861679;29;20778;-73
2021/10/04 08:46:41;;;;;;;1.05;0.65;;;;;;;14.46;80.46;100761.41;4862163;29;20403;-73
2021/10/04 08:49:08;;;;;;;0.30;0.30;;;;;;;14.48;81.12;100760.09;4859847;29;20425;-73
2021/10/04 08:51:34;;;;;;;0.95;0.65;;;;;;;14.48;80.82;100756.53;4861560;29;20894;-73
2021/10/04 08:54:01;;;;;;;1.88;0.80;;;;;;;14.43;80.24;100754.59;4861707;29;20494;-73
2021/10/04 08:56:26;;;;;;;1.20;0.60;;;;;;;14.41;80.52;100753.22;4861348;29;20421;-74
2021/10/04 08:58:51;;;;;;;2.00;1.20;;;;;;;14.46;80.82;100750.50;4861222;29;20418;-73
2021/10/04 09:01:22;;;;;;;2.60;0.83;;;;;;;14.48;80.66;100742.91;4861710;29;20754;-73
2021/10/04 09:03:51;;;;;;;2.85;0.70;;;;;;;14.45;80.25;100755.16;4860713;29;20789;-73
2021/10/04 09:06:30;;;;;;;1.00;0.70;;;;;;;14.42;80.05;100750.22;4861618;29;20415;-72
2021/10/04 09:09:03;;;;;;;0.93;0.70;;;;;;;14.41;80.26;100753.22;4861699;29;20466;-73
2021/10/04 09:11:37;;;;;;;0.73;0.70;;;;;;;14.45;81.10;100755.16;4861444;29;20430;-73
2021/10/04 09:14:07;;;;;;;0.70;0.70;;;;;;;14.49;81.49;100747.25;4857501;29;20431;-73
2021/10/04 09:17:03;;;;;;;0.98;0.60;;;;;;;14.49;81.00;100764.44;4861495;29;20413;-74
2021/10/04 09:19:34;;;;;;;1.30;0.60;;;;;;;14.54;80.69;100739.94;4852995;29;20418;-73
2021/10/04 09:22:15;;;;;;;1.40;0.77;;;;;;;14.54;80.75;100748.13;4844420;29;20422;-74
2021/10/04 09:24:58;;;;;;;1.48;1.00;;;;;;;14.59;80.88;100755.50;4844670;29;20762;-73
2021/10/04 09:27:23;;;;;;;2.63;0.70;;;;;;;14.55;81.31;100768.03;4843484;29;20427;-73
2021/10/04 09:29:49;;;;;;;1.10;0.60;;;;;;;14.60;81.14;100769.97;4858501;29;20429;-74
2021/10/04 09:32:41;;;;;;;1.40;0.63;;;;;;;14.66;80.74;100768.91;4860012;29;20426;-73
2021/10/04 09:35:16;;;;;;;0.80;0.80;;;;;;;14.71;80.33;100758.84;4858882;29;20572;-73
2021/10/04 09:37:44;;;;;;;0.60;0.60;;;;;;;14.66;80.16;100761.53;4860907;29;20893;-73
2021/10/04 09:40:36;;;;;;;2.30;0.88;;;;;;;14.60;80.64;100757.16;4861000;29;20438;-73
2021/10/04 09:43:04;;;;;;;1.33;0.70;;;;;;;14.66;80.62;100761.53;4859562;29;20438;-73
2021/10/04 09:45:32;;;;;;;1.10;0.82;;;;;;;14.70;81.00;100753.66;4874099;29;20757;-73
2021/10/04 09:48:06;;;;;;;1.08;0.90;;;;;;;14.77;80.10;100755.06;4860944;29;20403;-73
2021/10/04 09:50:32;;;;;;;1.15;0.90;;;;;;;14.82;78.99;100751.56;4855132;29;20425;-73
2021/10/04 09:52:59;;;;;;;0.70;0.70;;;;;;;14.89;79.14;100752.09;4860829;29;20778;-74
2021/10/04 09:55:30;;;;;;;1.48;0.63;;;;;;;14.96;78.87;100755.41;4860641;29;20482;-74
2021/10/04 09:58:03;;;;;;;1.35;0.90;;;;;;;14.97;78.91;100757.91;4859745;29;20419;-73
2021/10/04 10:00:33;;;;;;;0.60;0.57;;;;;;;15.04;79.06;100746.72;4860651;29;20645;-74
2021/10/04 10:02:59;;;;;;;4.40;0.80;;;;;;;15.24;78.43;100751.44;4844176;29;20426;-73
2021/10/04 10:05:27;;;;;;;0.57;0.52;;;;;;;15.46;78.25;100750.13;4860527;29;20406;-73
2021/10/04 10:07:53;;;;;;;0.70;0.70;;;;;;;15.71;78.21;100748.56;4860414;29;20402;-74
2021/10/04 10:10:20;;;;;;;0.57;0.40;;;;;;;15.96;77.19;100745.84;4858842;29;20411;-74
2021/10/04 10:12:46;;;;;;;2.30;0.70;;;;;;;16.19;75.42;100752.66;4860494;29;20406;-74
2021/10/04 10:15:21;;;;;;;1.20;0.40;;;;;;;16.30;74.47;100740.63;4860083;29;20904;-74
2021/10/04 10:17:49;;;;;;;0.93;0.40;;;;;;;16.21;73.59;100731.31;4843841;29;20410;-73
2021/10/04 10:20:18;;;;;;;2.00;0.63;;;;;;;16.06;73.70;100732.19;4860168;29;20426;-73
2021/10/04 10:22:53;;;;;;;1.00;0.40;;;;;;;15.99;74.67;100734.38;4858997;29;20498;-73
2021/10/04 10:25:27;;;;;;;1.25;0.70;;;;;;;15.93;76.01;100733.56;4860166;29;20489;-73
2021/10/04 10:27:53;;;;;;;1.27;0.80;;;;;;;15.81;76.41;100723.97;4843386;29;20657;-73
2021/10/04 10:30:21;;;;;;;0.60;0.50;;;;;;;15.66;75.59;100726.69;4860167;29;20774;-73
2021/10/04 10:32:47;;;;;;;0.40;0.40;;;;;;;15.58;75.97;100728.88;4860418;29;20557;-73
2021/10/04 10:35:13;;;;;;;1.10;0.53;;;;;;;15.53;76.78;100728.06;4860066;29;20430;-73
2021/10/04 10:37:50;;;;;;;0.90;0.52;;;;;;;15.49;77.21;100726.94;4857787;29;20490;-74
2021/10/04 10:40:21;;;;;;;2.55;0.88;;;;;;;15.39;77.84;100730.44;4859873;29;20426;-74
2021/10/04 10:43:05;;;;;;;1.60;0.60;;;;;;;15.37;78.36;100729.09;4859554;29;20430;-74
2021/10/04 10:45:45;;;;;;;0.40;0.40;;;;;;;15.43;77.58;100720.63;4859766;29;20402;-73
2021/10/04 10:48:11;;;;;;;0.60;0.50;;;;;;;15.55;77.14;100728.59;4843270;29;20403;-73
2021/10/04 10:50:39;;;;;;;2.70;1.38;;;;;;;15.60;76.64;100723.16;4857577;29;20834;-74
2021/10/04 10:53:20;;;;;;;23.38;8.23;;;;;;;15.67;77.26;100722.88;4855323;29;20446;-73
2021/10/04 10:55:54;;;;;;;0.70;0.70;;;;;;;15.76;75.92;100722.06;4854849;29;20453;-74
2021/10/04 10:58:27;;;;;;;0.60;0.60;;;;;;;15.84;76.40;100715.25;4842336;29;20452;-74
2021/10/04 11:01:13;;;;;;;1.63;0.50;;;;;;;15.80;75.29;100712.25;4855875;29;20516;-74
2021/10/04 11:03:55;;;;;;;0.50;0.50;;;;;;;15.77;76.36;100720.16;4858493;29;20920;-74
2021/10/04 11:06:43;;;;;;;0.73;0.52;;;;;;;15.71;77.30;100708.38;4858145;29;20421;-73
2021/10/04 11:09:08;;;;;;;0.40;0.40;;;;;;;15.63;77.05;100708.94;4859369;29;20415;-74
2021/10/04 11:11:34;;;;;;;2.28;0.98;;;;;;;15.63;77.57;100708.13;4844811;29;20474;-73
2021/10/04 11:14:08;;;;;;;0.63;0.63;;;;;;;15.60;76.45;100716.84;4841243;29;20462;-74
2021/10/04 11:16:37;;;;;;;0.63;0.40;;;;;;;15.55;75.83;100717.66;4859307;29;20414;-74
2021/10/04 11:19:04;;;;;;;0.40;0.40;;;;;;;15.55;76.68;100715.75;4859021;29;20425;-73
2021/10/04 11:21:31;;;;;;;3.03;2.83;;;;;;;15.53;77.25;100712.50;4859363;29;20505;-73
2021/10/04 11:24:00;;;;;;;4.22;2.30;;;;;;;15.52;78.23;100710.00;4859345;29;20394;-74